Time;durP1;ratioP1;P1;durP2;ratioP2;P2;SDS_P1;SDS_P2;PMS_P1;PMS_P2;Temp;Humidity;BMP_temperature;BMP_pressure;BME280_temperature;BME280_humidity;BME280_pressure;Samples;Min_cycle;Max_cycle;Signal;HPM_P1;HPM_P2
2021/12/06 00:01:01;;;;;;;16.50;15.47;;;;;;;;;;5093664;28;20201;-77
2021/12/06 00:03:33;;;;;;;14.57;13.97;;;;;;;;;;5093855;28;20190;-77
2021/12/06 00:05:59;;;;;;;17.23;16.23;;;;;;;;;;5093857;28;20262;-76
2021/12/06 00:08:26;;;;;;;17.80;16.27;;;;;;;;;;5093425;28;20198;-76
2021/12/06 00:10:53;;;;;;;15.87;14.93;;;;;;;;;;5093744;28;20220;-77
2021/12/06 00:13:22;;;;;;;18.47;16.97;;;;;;;;;;5093304;28;20779;-77
2021/12/06 00:15:50;;;;;;;17.30;16.03;;;;;;;;;;5093603;28;20302;-75
2021/12/06 00:18:18;;;;;;;15.07;14.37;;;;;;;;;;5093645;28;20272;-78
2021/12/06 00:20:46;;;;;;;13.50;13.00;;;;;;;;;;5093185;28;20225;-76
2021/12/06 00:23:12;;;;;;;22.17;17.13;;;;;;;;;;5093228;28;20201;-76
2021/12/06 00:25:39;;;;;;;15.87;14.80;;;;;;;;;;5093128;28;20247;-76
2021/12/06 00:28:06;;;;;;;15.10;14.20;;;;;;;;;;5093240;28;20194;-76
2021/12/06 00:30:33;;;;;;;15.93;14.83;;;;;;;;;;5093105;28;20186;-76
2021/12/06 00:32:59;;;;;;;15.47;14.63;;;;;;;;;;5093240;28;20275;-76
2021/12/06 00:35:29;;;;;;;18.73;17.07;;;;;;;;;;5092943;28;20587;-75
2021/12/06 00:37:58;;;;;;;15.80;14.90;;;;;;;;;;5092845;28;20193;-75
2021/12/06 00:40:25;;;;;;;14.23;13.53;;;;;;;;;;5093252;28;20200;-77
2021/12/06 00:42:52;;;;;;;17.20;16.23;;;;;;;;;;5092882;28;20197;-77
2021/12/06 00:45:19;;;;;;;16.77;15.80;;;;;;;;;;5092726;28;20702;-76
2021/12/06 00:47:46;;;;;;;18.13;16.67;;;;;;;;;;5092742;28;20288;-76
2021/12/06 00:50:15;;;;;;;16.53;15.53;;;;;;;;;;5092989;28;20225;-76
2021/12/06 00:52:43;;;;;;;19.67;18.20;;;;;;;;;;5092628;28;20279;-76
2021/12/06 00:55:10;;;;;;;19.37;17.83;;;;;;;;;;5092902;28;20379;-74
2021/12/06 00:57:37;;;;;;;19.53;18.03;;;;;;;;;;5092578;28;20194;-75
2021/12/06 01:00:05;;;;;;;16.87;15.70;;;;;;;;;;5092442;28;20247;-76
2021/12/06 01:02:32;;;;;;;16.67;15.53;;;;;;;;;;5092747;28;20193;-77
2021/12/06 01:04:59;;;;;;;17.80;16.00;;;;;;;;;;5092482;28;20229;-75
2021/12/06 01:07:25;;;;;;;17.80;16.60;;;;;;;;;;5092739;28;20229;-76
2021/12/06 01:09:53;;;;;;;16.47;15.53;;;;;;;;;;5092701;28;20204;-76
2021/12/06 01:12:20;;;;;;;13.83;13.33;;;;;;;;;;5092390;28;20664;-77
2021/12/06 01:14:47;;;;;;;16.77;15.80;;;;;;;;;;5092529;28;20283;-77
2021/12/06 01:17:14;;;;;;;21.43;19.90;;;;;;;;;;5092297;28;20200;-77
2021/12/06 01:19:40;;;;;;;18.60;17.37;;;;;;;;;;5092573;28;20232;-76
2021/12/06 01:22:19;;;;;;;16.83;15.83;;;;;;;;;;5092520;28;20233;-76
2021/12/06 01:24:52;;;;;;;19.57;17.83;;;;;;;;;;5092551;28;20189;-76
2021/12/06 01:30:33;;;;;;;20.40;18.53;;;;;;;;;;5084906;28;20233;-76
2021/12/06 01:33:32;;;;;;;16.50;15.60;;;;;;;;;;5092031;28;20182;-76
2021/12/06 01:41:29;;;;;;;18.50;17.17;;;;;;;;;;5092452;28;20263;-77
2021/12/06 01:44:10;;;;;;;18.07;17.07;;;;;;;;;;5092370;28;20620;-77
2021/12/06 01:46:38;;;;;;;17.63;16.73;;;;;;;;;;5092060;28;20631;-75
2021/12/06 01:49:05;;;;;;;15.60;14.93;;;;;;;;;;5092214;28;20280;-76
2021/12/06 01:51:32;;;;;;;16.80;15.90;;;;;;;;;;5091931;28;20743;-77
2021/12/06 01:53:59;;;;;;;16.50;15.70;;;;;;;;;;5091784;28;20660;-76
2021/12/06 01:56:26;;;;;;;20.13;18.33;;;;;;;;;;5091874;28;20198;-77
2021/12/06 01:58:53;;;;;;;15.30;14.70;;;;;;;;;;5092207;28;20194;-77
2021/12/06 02:01:21;;;;;;;17.73;16.73;;;;;;;;;;5092085;28;20293;-76
2021/12/06 02:03:48;;;;;;;17.30;16.33;;;;;;;;;;5091836;28;20230;-78
2021/12/06 02:06:14;;;;;;;16.97;16.10;;;;;;;;;;5091799;28;20233;-76
2021/12/06 02:08:41;;;;;;;19.50;18.03;;;;;;;;;;5091773;28;20194;-77
2021/12/06 02:11:09;;;;;;;20.43;18.97;;;;;;;;;;5092545;28;20318;-76
2021/12/06 02:13:43;;;;;;;18.97;17.43;;;;;;;;;;5095977;28;20222;-76
2021/12/06 02:16:10;;;;;;;17.43;16.47;;;;;;;;;;5095674;28;20189;-75
2021/12/06 02:18:46;;;;;;;18.00;16.90;;;;;;;;;;5095553;28;20197;-78
2021/12/06 02:21:17;;;;;;;16.67;15.67;;;;;;;;;;5095586;28;20242;-76
2021/12/06 02:23:44;;;;;;;17.37;15.87;;;;;;;;;;5095863;28;20190;-76
2021/12/06 02:26:10;;;;;;;15.17;14.57;;;;;;;;;;5095796;28;20651;-76
2021/12/06 02:28:37;;;;;;;18.20;16.83;;;;;;;;;;5095236;28;20290;-75
2021/12/06 02:31:04;;;;;;;15.37;14.67;;;;;;;;;;5095305;28;20200;-77
2021/12/06 02:33:30;;;;;;;15.60;15.00;;;;;;;;;;5095527;28;20256;-77
2021/12/06 02:35:57;;;;;;;17.30;16.30;;;;;;;;;;5095249;28;20233;-78
2021/12/06 02:38:25;;;;;;;17.93;16.70;;;;;;;;;;5095548;28;20297;-76
2021/12/06 02:40:52;;;;;;;15.90;15.30;;;;;;;;;;5095171;28;20204;-76
2021/12/06 02:43:19;;;;;;;15.80;15.20;;;;;;;;;;5095425;28;20206;-78
2021/12/06 02:45:46;;;;;;;16.23;15.43;;;;;;;;;;5095086;28;20605;-75
2021/12/06 02:48:13;;;;;;;17.37;16.33;;;;;;;;;;5094990;28;20671;-76
2021/12/06 02:50:41;;;;;;;18.30;17.03;;;;;;;;;;5095333;28;20272;-77
2021/12/06 02:53:08;;;;;;;19.23;17.60;;;;;;;;;;5095086;28;20226;-75
2021/12/06 02:55:37;;;;;;;15.90;15.30;;;;;;;;;;5094910;28;20247;-76
2021/12/06 02:58:14;;;;;;;21.23;19.50;;;;;;;;;;5094899;28;20247;-77
2021/12/06 03:00:42;;;;;;;16.80;15.87;;;;;;;;;;5095117;28;20276;-76
2021/12/06 03:03:09;;;;;;;18.27;17.33;;;;;;;;;;5095100;28;20198;-76
2021/12/06 03:05:35;;;;;;;19.03;17.93;;;;;;;;;;5094995;28;20190;-77
2021/12/06 03:08:02;;;;;;;17.07;16.20;;;;;;;;;;5094655;28;20671;-75
2021/12/06 03:10:29;;;;;;;16.57;15.87;;;;;;;;;;5094607;28;20194;-76
2021/12/06 03:12:58;;;;;;;14.90;14.17;;;;;;;;;;5094854;28;20305;-76
2021/12/06 03:15:25;;;;;;;14.57;13.97;;;;;;;;;;5094802;28;20233;-76
2021/12/06 03:17:51;;;;;;;20.57;18.53;;;;;;;;;;5094786;28;20196;-77
2021/12/06 03:20:18;;;;;;;16.37;15.33;;;;;;;;;;5094762;28;20197;-75
2021/12/06 03:22:45;;;;;;;16.80;15.53;;;;;;;;;;5093994;28;20189;-78
2021/12/06 03:25:14;;;;;;;17.50;16.43;;;;;;;;;;5094318;28;20732;-79
2021/12/06 03:27:40;;;;;;;15.97;15.00;;;;;;;;;;5094568;28;20289;-76
2021/12/06 03:30:10;;;;;;;18.20;17.13;;;;;;;;;;5094102;28;20312;-76
2021/12/06 03:32:36;;;;;;;18.80;17.40;;;;;;;;;;5094472;28;20194;-77
2021/12/06 03:35:03;;;;;;;15.50;14.80;;;;;;;;;;5094015;28;20328;-76
2021/12/06 03:37:30;;;;;;;17.23;16.30;;;;;;;;;;5094089;28;20240;-76
2021/12/06 03:39:57;;;;;;;15.57;14.67;;;;;;;;;;5093995;28;20244;-76
2021/12/06 03:42:25;;;;;;;19.17;17.80;;;;;;;;;;5094290;28;20273;-76
2021/12/06 03:44:52;;;;;;;14.37;13.87;;;;;;;;;;5094268;28;20274;-76
2021/12/06 03:47:22;;;;;;;19.60;18.10;;;;;;;;;;5093826;28;20232;-75
2021/12/06 03:49:48;;;;;;;18.53;17.07;;;;;;;;;;5094150;28;20193;-76
2021/12/06 03:52:15;;;;;;;14.23;13.63;;;;;;;;;;5094046;28;20201;-77
2021/12/06 03:54:42;;;;;;;16.50;15.47;;;;;;;;;;5094003;28;20226;-77
2021/12/06 03:57:09;;;;;;;15.17;13.83;;;;;;;;;;5094046;28;20224;-76
2021/12/06 03:59:36;;;;;;;15.40;14.73;;;;;;;;;;5093956;28;20225;-77
2021/12/06 04:02:03;;;;;;;15.60;14.70;;;;;;;;;;5093931;28;20194;-75
2021/12/06 04:04:31;;;;;;;17.47;16.20;;;;;;;;;;5093573;28;20202;-78
2021/12/06 04:06:58;;;;;;;18.03;16.63;;;;;;;;;;5093878;28;20354;-77
2021/12/06 04:09:25;;;;;;;14.60;13.83;;;;;;;;;;5093492;28;20243;-78
2021/12/06 04:11:52;;;;;;;15.60;14.60;;;;;;;;;;5093752;28;20194;-76
2021/12/06 04:14:18;;;;;;;17.30;15.87;;;;;;;;;;5093660;28;20306;-75
2021/12/06 04:16:46;;;;;;;15.07;14.33;;;;;;;;;;5093647;28;20268;-77
2021/12/06 04:19:13;;;;;;;17.07;15.70;;;;;;;;;;5093309;28;20198;-76
2021/12/06 04:21:43;;;;;;;14.97;13.80;;;;;;;;;;5093234;28;20197;-77
2021/12/06 04:24:10;;;;;;;14.83;13.87;;;;;;;;;;5093575;28;20221;-77
2021/12/06 04:26:37;;;;;;;12.37;11.97;;;;;;;;;;5093122;28;20733;-77
2021/12/06 04:29:04;;;;;;;15.67;14.20;;;;;;;;;;5093100;28;20640;-76
2021/12/06 04:31:32;;;;;;;13.43;12.67;;;;;;;;;;5093344;28;20277;-78
2021/12/06 04:34:00;;;;;;;12.13;11.73;;;;;;;;;;5092233;28;20703;-78
2021/12/06 04:36:27;;;;;;;14.43;13.73;;;;;;;;;;5093034;28;20193;-77
2021/12/06 04:38:55;;;;;;;15.87;14.63;;;;;;;;;;5092869;28;20290;-78
2021/12/06 04:41:22;;;;;;;13.70;13.00;;;;;;;;;;5093155;28;20198;-77
2021/12/06 04:43:49;;;;;;;11.70;11.30;;;;;;;;;;5092832;28;20285;-78
2021/12/06 04:46:16;;;;;;;14.33;13.63;;;;;;;;;;5092796;28;20706;-78
2021/12/06 04:48:42;;;;;;;14.27;13.67;;;;;;;;;;5093101;28;20194;-77
2021/12/06 04:51:10;;;;;;;15.10;13.70;;;;;;;;;;5092961;28;20198;-77
2021/12/06 04:53:37;;;;;;;14.93;14.13;;;;;;;;;;5092670;28;20280;-77
2021/12/06 04:56:09;;;;;;;12.77;12.33;;;;;;;;;;5092878;28;20651;-77
2021/12/06 04:58:39;;;;;;;12.67;12.07;;;;;;;;;;5092957;28;20273;-77
2021/12/06 05:01:06;;;;;;;16.80;15.20;;;;;;;;;;5092592;28;20663;-77
2021/12/06 05:03:33;;;;;;;13.87;13.33;;;;;;;;;;5092432;28;20239;-76
2021/12/06 05:06:02;;;;;;;17.83;16.17;;;;;;;;;;5092471;28;20288;-76
2021/12/06 05:08:29;;;;;;;16.67;15.50;;;;;;;;;;5092716;28;20194;-77
2021/12/06 05:10:58;;;;;;;15.13;14.07;;;;;;;;;;5092747;28;20189;-76
2021/12/06 05:13:26;;;;;;;15.17;14.07;;;;;;;;;;5092428;28;20601;-75
2021/12/06 05:15:53;;;;;;;15.80;14.33;;;;;;;;;;5092269;28;20626;-77
2021/12/06 05:18:20;;;;;;;13.90;13.20;;;;;;;;;;5092961;28;20567;-78
2021/12/06 05:20:47;;;;;;;22.40;15.23;;;;;;;;;;5092537;28;20194;-76
2021/12/06 05:23:13;;;;;;;20.43;18.30;;;;;;;;;;5092263;28;20233;-75
2021/12/06 05:25:41;;;;;;;20.27;18.20;;;;;;;;;;5092170;28;20698;-77
2021/12/06 05:28:08;;;;;;;13.87;12.97;;;;;;;;;;5092051;28;20638;-77
2021/12/06 05:30:37;;;;;;;17.40;15.73;;;;;;;;;;5092480;28;20217;-77
2021/12/06 05:33:06;;;;;;;17.20;15.80;;;;;;;;;;5092432;28;20193;-77
2021/12/06 05:35:33;;;;;;;14.60;13.73;;;;;;;;;;5092052;28;20730;-77
2021/12/06 05:38:00;;;;;;;21.60;19.50;;;;;;;;;;5092366;28;20190;-78
2021/12/06 05:40:27;;;;;;;15.30;14.23;;;;;;;;;;5092383;28;20225;-76
2021/12/06 05:42:56;;;;;;;14.17;13.30;;;;;;;;;;5092113;28;20281;-77
2021/12/06 05:45:24;;;;;;;20.70;18.37;;;;;;;;;;5092833;28;20194;-76
2021/12/06 05:47:52;;;;;;;16.90;14.80;;;;;;;;;;5096545;28;20568;-76
2021/12/06 05:50:19;;;;;;;13.53;12.83;;;;;;;;;;5096135;28;20689;-76
2021/12/06 05:52:49;;;;;;;18.00;16.27;;;;;;;;;;5096506;28;20190;-77
2021/12/06 05:55:15;;;;;;;11.10;10.50;;;;;;;;;;5096316;28;20265;-78
2021/12/06 05:57:43;;;;;;;16.83;15.33;;;;;;;;;;5096374;28;20594;-79
2021/12/06 06:00:15;;;;;;;20.23;17.77;;;;;;;;;;5095950;28;20625;-76
2021/12/06 06:02:41;;;;;;;12.27;11.43;;;;;;;;;;5096314;28;20186;-78
2021/12/06 06:05:11;;;;;;;12.93;11.73;;;;;;;;;;5095933;28;20225;-78
2021/12/06 06:07:37;;;;;;;12.53;11.97;;;;;;;;;;5097362;28;20201;-76
2021/12/06 06:10:05;;;;;;;16.63;15.03;;;;;;;;;;5095831;28;20659;-76
2021/12/06 06:12:31;;;;;;;14.50;13.40;;;;;;;;;;5096036;28;20198;-76
2021/12/06 06:14:58;;;;;;;13.47;12.43;;;;;;;;;;5095613;28;20315;-77
2021/12/06 06:17:27;;;;;;;15.17;14.20;;;;;;;;;;5095633;28;20203;-79
2021/12/06 06:19:54;;;;;;;15.43;14.43;;;;;;;;;;5095680;28;20675;-76
2021/12/06 06:22:22;;;;;;;12.90;12.27;;;;;;;;;;5095937;28;20579;-76
2021/12/06 06:24:49;;;;;;;20.67;18.57;;;;;;;;;;5095759;28;20198;-77
2021/12/06 06:27:16;;;;;;;14.30;13.33;;;;;;;;;;5095757;28;20193;-79
2021/12/06 06:29:42;;;;;;;15.20;14.27;;;;;;;;;;5095260;28;20238;-75
2021/12/06 06:32:09;;;;;;;12.60;11.90;;;;;;;;;;5095788;28;20197;-76
2021/12/06 06:34:36;;;;;;;10.70;10.30;;;;;;;;;;5095255;28;22118;-78
2021/12/06 06:37:04;;;;;;;14.73;13.70;;;;;;;;;;5095525;28;20550;-77
2021/12/06 06:39:32;;;;;;;12.50;11.80;;;;;;;;;;5095283;28;20200;-77
2021/12/06 06:41:59;;;;;;;15.93;14.73;;;;;;;;;;5095527;28;20258;-76
2021/12/06 06:44:26;;;;;;;12.50;11.90;;;;;;;;;;5095502;28;20221;-76
2021/12/06 06:46:52;;;;;;;16.47;15.43;;;;;;;;;;5095439;28;20189;-75
2021/12/06 06:49:21;;;;;;;14.73;14.00;;;;;;;;;;5095058;28;20247;-76
2021/12/06 06:51:48;;;;;;;15.23;14.17;;;;;;;;;;5094988;28;20663;-77
2021/12/06 06:54:15;;;;;;;15.27;14.10;;;;;;;;;;5095755;28;20194;-77
2021/12/06 06:56:43;;;;;;;14.10;13.37;;;;;;;;;;5094453;28;20286;-78
2021/12/06 06:59:10;;;;;;;14.07;13.33;;;;;;;;;;5094973;28;20205;-79
2021/12/06 07:01:37;;;;;;;15.47;14.67;;;;;;;;;;5095145;28;20198;-78
2021/12/06 07:04:04;;;;;;;13.83;13.13;;;;;;;;;;5095089;28;20198;-78
2021/12/06 07:06:30;;;;;;;14.13;13.13;;;;;;;;;;5094673;28;20281;-77
2021/12/06 07:08:57;;;;;;;14.60;13.80;;;;;;;;;;5095012;28;20229;-78
2021/12/06 07:11:24;;;;;;;15.03;13.50;;;;;;;;;;5094649;28;20190;-78
2021/12/06 07:13:53;;;;;;;19.20;17.30;;;;;;;;;;5094925;28;20198;-77
2021/12/06 07:16:20;;;;;;;16.83;15.27;;;;;;;;;;5094808;28;20240;-77
2021/12/06 07:18:47;;;;;;;16.23;14.00;;;;;;;;;;5094772;28;20194;-77
2021/12/06 07:21:13;;;;;;;13.23;12.67;;;;;;;;;;5094718;28;20267;-78
2021/12/06 07:23:40;;;;;;;14.13;13.20;;;;;;;;;;5094372;28;20582;-77
2021/12/06 07:26:08;;;;;;;17.17;15.70;;;;;;;;;;5094703;28;20190;-76
2021/12/06 07:28:34;;;;;;;17.03;15.80;;;;;;;;;;5094097;28;20283;-78
2021/12/06 07:31:05;;;;;;;12.47;11.77;;;;;;;;;;5094222;28;20229;-77
2021/12/06 07:33:32;;;;;;;12.90;12.20;;;;;;;;;;5095094;28;20221;-78
2021/12/06 07:35:59;;;;;;;18.93;16.90;;;;;;;;;;5094108;28;20225;-77
2021/12/06 07:38:26;;;;;;;19.73;18.23;;;;;;;;;;5094469;28;20618;-77
2021/12/06 07:40:53;;;;;;;12.77;11.83;;;;;;;;;;5094336;28;20204;-78
2021/12/06 07:43:19;;;;;;;11.93;11.43;;;;;;;;;;5094306;28;20198;-78
2021/12/06 07:45:46;;;;;;;14.93;14.03;;;;;;;;;;5094339;28;20213;-76
2021/12/06 07:48:15;;;;;;;14.00;13.20;;;;;;;;;;5093919;28;20233;-76
2021/12/06 07:50:42;;;;;;;14.67;13.67;;;;;;;;;;5095010;28;20288;-77
2021/12/06 07:53:09;;;;;;;12.37;11.77;;;;;;;;;;5094134;28;20194;-77
2021/12/06 07:55:35;;;;;;;13.47;12.77;;;;;;;;;;5094060;28;20313;-76
2021/12/06 07:58:03;;;;;;;14.93;14.13;;;;;;;;;;5093762;28;20197;-75
2021/12/06 08:00:31;;;;;;;15.23;14.10;;;;;;;;;;5093642;28;20689;-76
2021/12/06 08:02:57;;;;;;;15.00;14.23;;;;;;;;;;5093680;28;20193;-78
2021/12/06 08:05:33;;;;;;;13.53;13.03;;;;;;;;;;5093874;28;20202;-77
2021/12/06 08:08:01;;;;;;;13.53;13.03;;;;;;;;;;5093603;28;20186;-77
2021/12/06 08:10:28;;;;;;;14.43;13.93;;;;;;;;;;5092776;28;20247;-76
2021/12/06 08:12:55;;;;;;;15.40;14.77;;;;;;;;;;5093450;28;20193;-76
2021/12/06 08:15:22;;;;;;;17.00;15.87;;;;;;;;;;5093330;28;20279;-76
2021/12/06 08:17:48;;;;;;;16.83;15.83;;;;;;;;;;5093663;28;20266;-77
2021/12/06 08:20:15;;;;;;;13.90;13.30;;;;;;;;;;5093350;28;20228;-77
2021/12/06 08:22:43;;;;;;;13.67;13.17;;;;;;;;;;5093505;28;20193;-76
2021/12/06 08:25:11;;;;;;;16.90;15.23;;;;;;;;;;5093218;28;20575;-76
2021/12/06 08:27:38;;;;;;;16.27;15.33;;;;;;;;;;5093091;28;20247;-76
2021/12/06 08:30:06;;;;;;;12.57;12.17;;;;;;;;;;5093009;28;20261;-77
2021/12/06 08:32:33;;;;;;;15.80;14.97;;;;;;;;;;5093066;28;20285;-77
2021/12/06 08:34:59;;;;;;;18.23;16.67;;;;;;;;;;5092878;28;20667;-76
2021/12/06 08:37:26;;;;;;;18.93;15.37;;;;;;;;;;5093279;28;20740;-76
2021/12/06 08:39:54;;;;;;;15.90;15.20;;;;;;;;;;5092897;28;20370;-78
2021/12/06 08:42:21;;;;;;;27.07;24.87;;;;;;;;;;5093241;28;20220;-75
2021/12/06 08:44:49;;;;;;;24.43;22.23;;;;;;;;;;5093191;28;20193;-77
2021/12/06 08:47:17;;;;;;;20.33;19.13;;;;;;;;;;5093153;28;20636;-77
2021/12/06 08:49:44;;;;;;;20.57;19.07;;;;;;;;;;5092763;28;20205;-77
2021/12/06 08:52:11;;;;;;;21.53;20.03;;;;;;;;;;5092959;28;20216;-77
2021/12/06 08:54:38;;;;;;;18.47;17.23;;;;;;;;;;5093011;28;20266;-78
2021/12/06 08:57:06;;;;;;;22.57;20.83;;;;;;;;;;5092861;28;20275;-77
2021/12/06 08:59:33;;;;;;;18.17;17.33;;;;;;;;;;5092596;28;20193;-79
2021/12/06 09:02:00;;;;;;;18.10;17.20;;;;;;;;;;5092570;28;20258;-78
2021/12/06 09:04:28;;;;;;;17.27;16.53;;;;;;;;;;5092456;28;20583;-78
2021/12/06 09:06:55;;;;;;;15.07;14.47;;;;;;;;;;5092469;28;20613;-79
2021/12/06 09:09:23;;;;;;;17.40;16.30;;;;;;;;;;5092433;28;20246;-77
2021/12/06 09:11:51;;;;;;;14.83;14.13;;;;;;;;;;5093291;28;20201;-78
2021/12/06 09:14:19;;;;;;;15.43;14.53;;;;;;;;;;5092368;28;20201;-78
2021/12/06 09:16:47;;;;;;;15.77;14.53;;;;;;;;;;5092601;28;20221;-78
2021/12/06 09:19:15;;;;;;;17.03;15.70;;;;;;;;;;5092629;28;20263;-79
2021/12/06 09:21:43;;;;;;;15.53;14.90;;;;;;;;;;5091951;28;20552;-79
2021/12/06 09:24:11;;;;;;;15.40;14.47;;;;;;;;;;5092309;28;20194;-78
2021/12/06 09:26:38;;;;;;;15.20;14.37;;;;;;;;;;5092496;28;20254;-78
2021/12/06 09:29:05;;;;;;;15.13;14.53;;;;;;;;;;5091993;28;20316;-78
2021/12/06 09:31:35;;;;;;;14.70;14.10;;;;;;;;;;5092495;28;20277;-78
2021/12/06 09:34:02;;;;;;;15.80;15.20;;;;;;;;;;5092248;28;20255;-79
2021/12/06 09:36:29;;;;;;;14.83;14.23;;;;;;;;;;5092084;28;20274;-78
2021/12/06 09:38:55;;;;;;;15.80;15.00;;;;;;;;;;5092358;28;20225;-78
2021/12/06 09:41:26;;;;;;;15.50;14.70;;;;;;;;;;5092429;28;20284;-78
2021/12/06 09:43:55;;;;;;;13.80;13.30;;;;;;;;;;5092057;28;20186;-79
2021/12/06 09:46:22;;;;;;;18.00;16.57;;;;;;;;;;5092048;28;20237;-77
2021/12/06 09:48:51;;;;;;;15.20;14.60;;;;;;;;;;5092336;28;20251;-79
2021/12/06 09:51:19;;;;;;;15.73;14.93;;;;;;;;;;5091998;28;20601;-78
2021/12/06 09:53:46;;;;;;;13.73;13.20;;;;;;;;;;5092236;28;20220;-79
2021/12/06 09:56:15;;;;;;;15.97;15.17;;;;;;;;;;5092111;28;20218;-77
2021/12/06 09:58:42;;;;;;;14.13;13.37;;;;;;;;;;5091932;28;20198;-79
2021/12/06 10:01:12;;;;;;;13.37;12.80;;;;;;;;;;5091904;28;20220;-78
2021/12/06 10:03:39;;;;;;;17.73;16.30;;;;;;;;;;5092222;28;20197;-77
2021/12/06 10:06:07;;;;;;;16.17;14.97;;;;;;;;;;5091823;28;20233;-77
2021/12/06 10:08:36;;;;;;;13.60;13.00;;;;;;;;;;5091764;28;20680;-80
2021/12/06 10:11:03;;;;;;;14.43;13.70;;;;;;;;;;5091809;28;20198;-78
2021/12/06 10:13:30;;;;;;;18.23;16.67;;;;;;;;;;5092066;28;20189;-79
2021/12/06 10:15:56;;;;;;;18.63;17.03;;;;;;;;;;5091708;28;20218;-78
2021/12/06 10:18:23;;;;;;;16.87;15.97;;;;;;;;;;5092026;28;20198;-79
2021/12/06 10:20:50;;;;;;;17.17;16.03;;;;;;;;;;5091714;28;20194;-78
2021/12/06 10:23:19;;;;;;;13.93;13.33;;;;;;;;;;5091675;28;20664;-79
2021/12/06 10:25:47;;;;;;;12.20;11.80;;;;;;;;;;5091654;28;20232;-80
2021/12/06 10:28:14;;;;;;;13.20;12.70;;;;;;;;;;5091483;28;20193;-79
2021/12/06 10:30:42;;;;;;;14.93;14.13;;;;;;;;;;5091696;28;20718;-79
2021/12/06 10:33:11;;;;;;;15.37;14.67;;;;;;;;;;5093877;28;20225;-76
2021/12/06 10:35:39;;;;;;;16.47;15.50;;;;;;;;;;5095233;28;20198;-77
2021/12/06 10:38:06;;;;;;;23.83;21.70;;;;;;;;;;5095288;28;20675;-77
2021/12/06 10:40:37;;;;;;;20.40;19.13;;;;;;;;;;5095611;28;20194;-77
2021/12/06 10:43:06;;;;;;;16.57;15.87;;;;;;;;;;5095219;28;20190;-77
2021/12/06 10:45:35;;;;;;;24.00;21.97;;;;;;;;;;5095182;28;20197;-76
2021/12/06 10:48:06;;;;;;;16.80;16.07;;;;;;;;;;5095382;28;20201;-76
2021/12/06 10:50:34;;;;;;;16.97;16.27;;;;;;;;;;5095374;28;20267;-76
2021/12/06 10:53:01;;;;;;;17.70;16.87;;;;;;;;;;5095343;28;20194;-76
2021/12/06 10:55:30;;;;;;;19.50;18.10;;;;;;;;;;5095835;28;20205;-76
2021/12/06 10:57:59;;;;;;;18.77;17.87;;;;;;;;;;5095158;28;20233;-78
2021/12/06 11:00:32;;;;;;;18.90;18.00;;;;;;;;;;5095116;28;20297;-76
2021/12/06 11:02:58;;;;;;;19.17;18.20;;;;;;;;;;5094811;28;20632;-76
2021/12/06 11:05:26;;;;;;;21.27;19.70;;;;;;;;;;5094701;28;20756;-76
2021/12/06 11:08:08;;;;;;;20.33;19.30;;;;;;;;;;5095624;28;20193;-77
2021/12/06 11:10:38;;;;;;;19.83;18.73;;;;;;;;;;5093044;28;20194;-75
2021/12/06 11:13:24;;;;;;;20.17;18.40;;;;;;;;;;5095027;28;20308;-75
2021/12/06 11:16:08;;;;;;;20.73;19.40;;;;;;;;;;5094861;28;20256;-76
2021/12/06 11:18:40;;;;;;;20.00;19.00;;;;;;;;;;5094572;28;20567;-76
2021/12/06 11:21:15;;;;;;;19.20;18.30;;;;;;;;;;5094881;28;20190;-76
2021/12/06 11:24:14;;;;;;;22.80;21.10;;;;;;;;;;5094764;28;20255;-77
2021/12/06 11:26:43;;;;;;;18.57;17.57;;;;;;;;;;5051986;28;20199;-77
2021/12/06 11:29:13;;;;;;;22.10;20.27;;;;;;;;;;5051894;28;20258;-76
2021/12/06 11:31:41;;;;;;;20.03;18.60;;;;;;;;;;5052118;28;20282;-77
2021/12/06 11:34:08;;;;;;;18.70;17.80;;;;;;;;;;5052001;28;20195;-78
2021/12/06 11:36:35;;;;;;;24.53;21.73;;;;;;;;;;5051823;28;20744;-76
2021/12/06 11:39:05;;;;;;;19.17;18.17;;;;;;;;;;5052031;28;20230;-77
2021/12/06 11:41:33;;;;;;;17.77;16.97;;;;;;;;;;5051838;28;20195;-77
2021/12/06 11:44:00;;;;;;;17.47;16.67;;;;;;;;;;5051577;28;20231;-78
2021/12/06 11:46:30;;;;;;;18.80;17.90;;;;;;;;;;5051801;28;20680;-78
2021/12/06 11:48:56;;;;;;;18.10;17.17;;;;;;;;;;5052056;28;20734;-77
2021/12/06 11:51:24;;;;;;;16.33;15.63;;;;;;;;;;5052359;28;20253;-78
2021/12/06 11:53:52;;;;;;;18.83;17.67;;;;;;;;;;5051611;28;20625;-78
2021/12/06 11:56:20;;;;;;;16.50;15.80;;;;;;;;;;5051401;28;20230;-77
2021/12/06 11:58:49;;;;;;;18.17;17.37;;;;;;;;;;5092983;28;20664;-77
2021/12/06 12:01:16;;;;;;;16.37;15.60;;;;;;;;;;5093972;28;20642;-77
2021/12/06 12:03:45;;;;;;;19.83;18.77;;;;;;;;;;5093632;28;20198;-77
2021/12/06 12:06:23;;;;;;;18.43;17.53;;;;;;;;;;5093556;28;20220;-78
2021/12/06 12:09:01;;;;;;;21.27;20.07;;;;;;;;;;5093837;28;20190;-76
2021/12/06 12:11:28;;;;;;;22.17;20.87;;;;;;;;;;5093532;28;20572;-78
2021/12/06 12:13:57;;;;;;;20.13;19.13;;;;;;;;;;5093488;28;20197;-78
2021/12/06 12:16:25;;;;;;;20.57;19.57;;;;;;;;;;5093639;28;20760;-77
2021/12/06 12:18:53;;;;;;;20.53;19.40;;;;;;;;;;5093390;28;20229;-78
2021/12/06 12:21:20;;;;;;;19.87;18.97;;;;;;;;;;5093688;28;20190;-77
2021/12/06 12:23:46;;;;;;;16.90;16.20;;;;;;;;;;5093569;28;20194;-77
2021/12/06 12:26:15;;;;;;;17.87;17.07;;;;;;;;;;5093244;28;20719;-77
2021/12/06 12:28:51;;;;;;;19.60;18.47;;;;;;;;;;5093259;28;20673;-77
2021/12/06 12:31:18;;;;;;;21.40;20.17;;;;;;;;;;5093446;28;20193;-76
2021/12/06 12:33:46;;;;;;;23.77;21.93;;;;;;;;;;5093038;28;20220;-76
2021/12/06 12:36:17;;;;;;;21.30;20.20;;;;;;;;;;5093000;28;20241;-77
2021/12/06 12:38:44;;;;;;;20.00;19.00;;;;;;;;;;5093388;28;20197;-77
2021/12/06 12:41:13;;;;;;;19.23;18.07;;;;;;;;;;5092971;28;20193;-77
2021/12/06 12:43:42;;;;;;;19.77;18.57;;;;;;;;;;5092909;28;20194;-79
2021/12/06 12:46:10;;;;;;;19.63;18.73;;;;;;;;;;5093137;28;20193;-78
2021/12/06 12:48:55;;;;;;;21.00;20.00;;;;;;;;;;5093160;28;20240;-78
2021/12/06 12:51:24;;;;;;;21.90;20.80;;;;;;;;;;5093153;28;20674;-78
2021/12/06 12:53:56;;;;;;;19.67;18.77;;;;;;;;;;5093361;28;20232;-77
2021/12/06 12:56:24;;;;;;;20.70;19.73;;;;;;;;;;5091967;28;20233;-77
2021/12/06 12:58:52;;;;;;;18.43;17.63;;;;;;;;;;5093779;28;20202;-79
2021/12/06 13:01:19;;;;;;;20.40;19.40;;;;;;;;;;5092573;28;20198;-80
2021/12/06 13:03:52;;;;;;;17.30;16.60;;;;;;;;;;5092881;28;20245;-77
2021/12/06 13:06:20;;;;;;;19.30;18.20;;;;;;;;;;5092503;28;20232;-76
2021/12/06 13:08:49;;;;;;;17.80;17.07;;;;;;;;;;5092758;28;20276;-77
2021/12/06 13:11:16;;;;;;;19.80;18.67;;;;;;;;;;5092743;28;20748;-78
2021/12/06 13:13:46;;;;;;;18.10;17.30;;;;;;;;;;5092755;28;20198;-78
2021/12/06 13:16:28;;;;;;;17.80;17.00;;;;;;;;;;5092766;28;20288;-77
2021/12/06 13:21:46;;;;;;;17.00;16.30;;;;;;;;;;5092271;28;20286;-78
2021/12/06 13:24:31;;;;;;;18.83;17.83;;;;;;;;;;5092339;28;20700;-76
2021/12/06 13:27:01;;;;;;;16.70;16.00;;;;;;;;;;5092623;28;20193;-76
2021/12/06 13:29:30;;;;;;;18.63;17.83;;;;;;;;;;5091965;28;20229;-77
2021/12/06 13:31:57;;;;;;;18.27;17.47;;;;;;;;;;5092160;28;20724;-78
2021/12/06 13:34:25;;;;;;;19.33;18.37;;;;;;;;;;5092479;28;20270;-77
2021/12/06 13:36:53;;;;;;;18.10;17.30;;;;;;;;;;5092305;28;20221;-78
2021/12/06 13:39:33;;;;;;;16.13;15.53;;;;;;;;;;5092147;28;20289;-78
2021/12/06 13:42:02;;;;;;;14.50;14.00;;;;;;;;;;5092066;28;20647;-79
2021/12/06 13:44:38;;;;;;;21.40;19.77;;;;;;;;;;5092363;28;20220;-77
2021/12/06 13:47:10;;;;;;;26.57;24.37;;;;;;;;;;5092357;28;20228;-77
2021/12/06 13:49:36;;;;;;;27.53;25.43;;;;;;;;;;5092329;28;20248;-79
2021/12/06 13:52:04;;;;;;;25.87;23.77;;;;;;;;;;5092268;28;20229;-80
2021/12/06 13:54:32;;;;;;;25.80;24.00;;;;;;;;;;5092334;28;20197;-80
2021/12/06 13:57:00;;;;;;;24.63;23.17;;;;;;;;;;5092148;28;20309;-80
2021/12/06 13:59:31;;;;;;;23.33;22.03;;;;;;;;;;5091899;28;20225;-81
2021/12/06 14:02:03;;;;;;;23.60;22.30;;;;;;;;;;5092246;28;20186;-81
2021/12/06 14:04:33;;;;;;;23.70;22.30;;;;;;;;;;5091940;28;20247;-82
2021/12/06 14:07:01;;;;;;;23.10;21.73;;;;;;;;;;5093764;28;20667;-81
2021/12/06 14:09:29;;;;;;;23.40;22.10;;;;;;;;;;5095813;28;20190;-81
2021/12/06 14:11:57;;;;;;;21.80;20.60;;;;;;;;;;5096194;28;20247;-82
2021/12/06 14:14:25;;;;;;;24.17;22.77;;;;;;;;;;5096055;28;20327;-81
2021/12/06 14:16:54;;;;;;;23.33;22.03;;;;;;;;;;5096000;28;20194;-82
2021/12/06 14:19:24;;;;;;;23.37;22.00;;;;;;;;;;5096039;28;20564;-81
2021/12/06 14:21:52;;;;;;;23.87;22.37;;;;;;;;;;5096002;28;20225;-80
2021/12/06 14:24:19;;;;;;;23.10;21.70;;;;;;;;;;5095946;28;20229;-80
2021/12/06 14:26:46;;;;;;;23.43;21.93;;;;;;;;;;5095507;28;20241;-80
2021/12/06 14:29:14;;;;;;;23.03;21.63;;;;;;;;;;5095495;28;20264;-80
2021/12/06 14:31:41;;;;;;;25.23;23.73;;;;;;;;;;5095447;28;20659;-80
2021/12/06 14:34:09;;;;;;;24.10;22.60;;;;;;;;;;5095463;28;20202;-80